Barcroft Research Lab Weather observations

Data are for 10 minute period ending at time listed.
 Day   Time   Solar   Ave.   Ave.  Ave.  Vector  Std.   Max.    Baro.    
  of    of     Rad.   Air    Rel.  Wind   Wind   Dev.   Wind   Press.    
Year   Day            Temp.  Hum.  Speed  Dir.   Dir.   Gust            
2015   (PST)  Kw/m2    F      %     mph   deg.   deg.    mph     mb.    
------------------------------------------------------------------------
 115    7:50     654   16.5    95   20.6   277    -99    32.0   632.30  
 115    8:00     537   15.9    96   18.5   275    -99    32.6   632.30  
 115    8:10     479   16.1    96   15.3   270    -99    29.9   631.90  
 115    8:20     528   15.8    96   21.0   280    -99    34.3   631.90  
 115    8:30     482   15.8    96   19.9   267    -99    32.8   631.90  
 115    8:40     732   16.3    96   19.6   266    -99    37.1   631.90  
 115    8:50     520   16.4    96   17.4   288    -99    31.0   631.90  
 115    9:00     502   17.2    96   18.5   296    -99    33.3   631.90  
 115    9:10     309   15.5    95   22.4   284    -99    36.8   631.70  
 115    9:20     467   14.5    95   20.8   283    -99    32.4   631.70  
 115    9:30     734   15.8    96   18.5   287    -99    31.8   631.70  
 115    9:40    1051   17.0    94   20.7   287    -99    34.9   631.70  
 115    9:50     352   15.9    94   20.8   283    -99    36.0   631.70  
 115   10:00     601   15.5    95   16.4   282    -99    27.0   631.70  
 115   10:10     536   15.2    95   19.8   291    -99    39.6   631.70  
 115   10:20     331   15.3    95   20.0   288    -99    30.4   631.70  
 115   10:30     281   14.2    95   21.0   287    -99    33.9   631.70  
 115   10:40     600   14.3    96   17.9   276    -99    27.5   631.70  
 115   10:50     622   15.1    95   17.6   283    -99    30.5   631.70  
 115   11:00     494   15.1    95   16.4   275    -99    25.3   631.70  
 115   11:10     974   16.0    95   17.2   280    -99    30.5   632.00  
 115   11:20    1036   15.9    93   17.3   271    -99    27.5   632.00  
 115   11:30     330   15.2    94   15.6   288    -99    30.3   632.00  
 115   11:40     202   14.6    95   14.6   296    -99    27.9   632.00  
 115   11:50     232   14.4    96   18.1   296    -99    31.6   632.00  
 115   12:00     266   14.5    96   20.4   299    -99    31.6   632.00  
 115   12:10     147   14.3    96   18.6   295    -99    30.0   632.00  
 115   12:20     492   14.7    96   21.6   302    -99    32.2   632.00  
 115   12:30     579   16.2    94   24.2   302    -99    34.8   632.00  
 115   12:40     312   15.3    95   21.4   303    -99    36.2   632.00  
 115   12:50     281   15.2    95   20.5   304    -99    33.6   632.00  
 115   13:00     271   14.8    95   22.3   304    -99    33.2   632.00  
 115   13:10     368   14.6    94   19.9   305    -99    29.1   632.30  
 115   13:20     290   14.6    95   17.2   296    -99    29.6   632.30  
 115   13:30     290   14.8    96   17.9   313    -99    31.5   632.30  
 115   13:40     178   14.6    95   20.2   304    -99    35.5   632.30  
 115   13:50     145   14.4    96   17.6   309    -99    28.2   632.30  
 115   14:00     114   14.3    96   14.5   309    -99    30.3   632.30  
 115   14:10     125   14.4    96   17.3   310    -99    38.8   632.40  
 115   14:20     214   14.5    96   19.2   311    -99    32.9   632.40  
 115   14:30     177   14.6    96   18.7   310    -99    39.8   632.40  
 115   14:40      91   14.4    96   18.7   295    -99    35.4   632.40  
 115   14:50     144   14.2    96   20.1   303    -99    51.3   632.40  
 115   15:00     127   14.3    96   19.5   306    -99    37.6   632.40  
 115   15:10     114   14.3    96   19.2   293    -99    41.2   632.70  
 115   15:20     135   14.1    96   19.1   295    -99    38.5   632.70  
 115   15:30     111   13.7    96   16.7   305    -99    38.0   632.70  
 115   15:40      56   13.4    96   17.6   304    -99    40.9   632.70  
 115   15:50      44   13.3    96   14.3   295    -99    40.5   632.70  
 115   16:00      46   13.7    97   19.8   303    -99    35.4   632.70  
 115   16:10      34   13.3    96   17.4   299    -99    34.6   633.10  
 115   16:20      19   13.1    96   20.1   306    -99    33.8   633.10  
 115   16:30      11   13.0    96   22.9   302    -99    38.3   633.10  
 115   16:40       3   13.2    97   18.5   303    -99    37.2   633.10  
 115   16:50       1   13.2    96   20.9   300    -99    35.1   633.10  
 115   17:00       0   12.8    96   19.6   299    -99    35.5   633.10  
 115   17:10       0   12.5    96   21.9   303    -99    34.4   633.50  
 115   17:20       0   12.4    96   21.3   297    -99    39.9   633.50  
 115   17:30       0   12.3    96   23.5   306    -99    35.7   633.50  
 115   17:40       0   12.3    96   22.7   297    -99    44.6   633.50  
 115   17:50       0   12.2    96   19.5   302    -99    32.2   633.50  
 115   18:00       0   12.3    96   22.5   303    -99    36.2   633.50  
 115   18:10       0   12.2    96   22.6   303    -99    37.6   634.00  
 115   18:20       0   12.1    96   20.5   309    -99    39.5   634.00  
 115   18:30       0   12.1    96   20.8   302    -99    31.4   634.00  
 115   18:40       0   11.9    96   23.2   305    -99    33.4   634.00  
 115   18:50       0   11.9    96   20.3   306    -99    34.3   634.00  
 115   19:00       0   12.0    96   20.7   306    -99    30.9   634.00  
 115   19:10       0   12.2    97   20.8   302    -99    32.7   634.50  
 115   19:20       0   12.4    96   21.2   298    -99    44.3   634.50  
 115   19:30       0   12.3    96   20.0   308    -99    34.7   634.50  
 115   19:40       0   12.1    96   22.6   306    -99    33.2   634.50  
 115   19:50       0   12.1    96   18.8   307    -99    30.1   634.50  
 115   20:00       0   12.4    97   18.0   305    -99    29.1   634.50  
 115   20:10       0   12.2    96   19.6   310    -99    31.4   634.40  
 115   20:20       0   12.3    97   14.4   314    -99    27.4   634.40  
 115   20:30       0   12.2    96   17.8   313    -99    30.7   634.40  
 115   20:40       0   11.7    96   14.9   332    -99    24.4   634.40  
 115   20:50       0   11.3    96   12.6   334    -99    21.4   634.40  
 115   21:00       0   11.1    96   14.1   336    -99    22.4   634.40  
 115   21:10       0   11.0    96   12.6   335    -99    24.0   634.30  
 115   21:20       0   11.1    96   12.8   334    -99    21.1   634.30  
 115   21:30       0   11.0    96    9.1   334    -99    16.1   634.30  
 115   21:40       0   10.9    96   10.7   325    -99    17.7   634.30  
 115   21:50       0   11.2    96   11.2   330    -99    18.9   634.30  
 115   22:00       0   11.5    96   12.8   323    -99    19.5   634.30  
 115   22:10       0   11.7    96   11.8   332    -99    19.0   634.80  
 115   22:20       0   12.0    96   10.5   329    -99    19.4   634.80  
 115   22:30       0   11.9    96   11.7   341    -99    23.7   634.80  
 115   22:40       0   12.0    96   12.8   338    -99    24.0   634.80  
 115   22:50       0   12.4    97   13.6   334    -99    22.1   634.80  
 115   23:00       0   12.0    96   11.8   337    -99    23.2   634.80  
 115   23:10       0   11.7    96   12.2   333    -99    22.4   634.60  
 115   23:20       0   11.6    96   13.5   332    -99    24.1   634.60  
 115   23:30       0   11.6    96   12.1   327    -99    24.8   634.60  
 115   23:40       0   11.2    96   10.9   328    -99    18.9   634.60  
 115   23:50       0   11.0    96   14.4   333    -99    29.3   634.60  
 116    0:00       0   12.1    97   17.3   338    -99    31.0   634.60  
 116    0:10       0   12.8    96   14.9   344    -99    32.1   634.50  
 116    0:20       0   10.7    94   10.4   332    -99    17.1   634.50  
 116    0:30       0   12.0    97   17.3   335    -99    32.9   634.50  
 116    0:40       0   12.6    95   15.6   335    -99    25.4   634.50  
 116    0:50       0   12.4    95   16.6   335    -99    30.7   634.50  
 116    1:00       0   13.2    96   18.7   329    -99    33.6   634.50  
 116    1:10       0   14.3    95   21.1   330    -99    48.4   635.00  
 116    1:20       0   15.6    91   22.8   334    -99    42.7   635.00  
 116    1:30       0   17.3    87   23.5   332    -99    43.5   635.00  
 116    1:40       0   18.0    84   24.4   332    -99    43.5   635.00  
 116    1:50       0   17.3    83   21.9   327    -99    41.6   635.00  
 116    2:00       0   16.4    83   19.9   326    -99    33.9   635.00  
 116    2:10       0   18.0    82   21.8   331    -99    38.1   634.80  
 116    2:20       0   18.1    79   21.0   333    -99    49.5   634.80  
 116    2:30       0   17.1    79   17.0   336    -99    36.3   634.80  
 116    2:40       0   17.2    80   18.6   334    -99    34.9   634.80  
 116    2:50       1   18.6    77   20.0   336    -99    43.7   634.80  
 116    3:00       3   17.9    77   17.6   333    -99    35.2   634.80  
 116    3:10      10   16.7    81   16.8   342    -99    33.1   635.70  
 116    3:20      29   17.7    78   16.1   339    -99    28.1   635.70  
 116    3:30      58   18.9    75   17.1   340    -99    34.0   635.70  
 116    3:40      97   19.2    74   16.8   340    -99    36.6   635.70  
 116    3:50     138   21.2    69   16.7   339    -99    34.8   635.70  
 116    4:00     172   21.0    69   15.1   344    -99    32.9   635.70  
 116    4:10     206   22.0    68   16.7   339    -99    33.2   636.40  
 116    4:20     240   23.6    66   19.7   340    -99    35.0   636.40  
 116    4:30     276   24.1    64   15.4   339    -99    26.3   636.40  
 116    4:40     312   25.6    64   20.2   347    -99    37.3   636.40  
 116    4:50     349   26.6    63   20.7   350    -99    36.5   636.40  
 116    5:00     386   25.8    69   23.5   360    -99    43.5   636.40  
 116    5:10     423   25.7    69   21.4   359    -99    33.5   636.90  
 116    5:20     458   26.5    67   23.2   356    -99    40.5   636.90  
 116    5:30     493   25.8    68   23.1     2    -99    39.3   636.90  
 116    5:40     529   25.2    69   24.7     7    -99    43.0   636.90  
 116    5:50     563   24.3    72   25.1     6    -99    43.0   636.90  
 116    6:00     596   24.0    73   26.6     7    -99    40.3   636.90  
 116    6:10     631   24.2    73   23.2     6    -99    45.7   637.80  
 116    6:20     659   25.6    70   22.3     2    -99    40.5   637.80  
 116    6:30     687   25.1    71   24.2     4    -99    42.2   637.80  
 116    6:40     719   25.2    70   23.3     3    -99    38.9   637.80  
 116    6:50     745   25.8    70   22.2     1    -99    38.0   637.80  
 116    7:00     773   26.2    70   22.0     3    -99    34.9   637.80  
 116    7:10     798   26.5    69   23.0   356    -99    41.3   638.00  
 116    7:20     824   27.0    68   24.6   355    -99    45.4   638.00  
 116    7:30     848   27.1    68   22.4   357    -99    38.1   638.00  
 116    7:40     871   27.5    67   23.1     4    -99    38.9   638.00  

Return to Barcroft Research Lab graphs page.


Western Regional Climate Center,wrcc@dri.edu